Time;durP1;ratioP1;P1;durP2;ratioP2;P2;SDS_P1;SDS_P2;PMS_P1;PMS_P2;Temp;Humidity;BMP_temperature;BMP_pressure;BME280_temperature;BME280_humidity;BME280_pressure;Samples;Min_cycle;Max_cycle;Signal;HPM_P1;HPM_P2
2022/06/21 00:04:28;;;;;;;13.32;4.15;;;;;;;12.80;100.00;101388.09;10355323;28;20463;-61
2022/06/21 00:09:24;;;;;;;14.13;3.75;;;;;;;12.79;100.00;101389.25;10356371;28;20526;-61
2022/06/21 00:14:21;;;;;;;18.95;3.63;;;;;;;12.80;100.00;101393.59;10352132;28;20094;-61
2022/06/21 00:19:24;;;;;;;16.15;4.00;;;;;;;12.81;100.00;101403.47;10366724;28;20747;-61
2022/06/21 00:24:21;;;;;;;21.55;5.60;;;;;;;12.70;100.00;101406.78;10340351;28;20075;-61
2022/06/21 00:29:17;;;;;;;14.73;3.90;;;;;;;12.71;100.00;101411.94;10336886;28;20144;-61
2022/06/21 00:34:17;;;;;;;17.85;4.63;;;;;;;12.66;100.00;101414.81;10351809;28;20137;-62
2022/06/21 00:39:16;;;;;;;16.35;3.95;;;;;;;12.62;100.00;101420.16;10346280;28;20041;-62
2022/06/21 00:44:27;;;;;;;14.70;3.92;;;;;;;12.53;100.00;101415.72;10347556;28;20048;-62
2022/06/21 00:49:27;;;;;;;15.35;4.47;;;;;;;12.55;100.00;101418.97;10349562;27;20089;-61
2022/06/21 00:54:34;;;;;;;20.30;4.78;;;;;;;12.56;100.00;101415.09;10361110;28;20106;-61
2022/06/21 00:59:32;;;;;;;17.50;4.05;;;;;;;12.51;100.00;101407.81;10357087;27;20044;-62
2022/06/21 01:04:42;;;;;;;20.10;4.75;;;;;;;12.50;100.00;101416.34;10352098;28;20467;-62
2022/06/21 01:09:59;;;;;;;15.20;3.10;;;;;;;12.48;100.00;101411.16;10361084;28;20490;-62
2022/06/21 01:15:02;;;;;;;19.10;7.18;;;;;;;12.45;100.00;101409.06;10350889;28;20459;-62
2022/06/21 01:20:01;;;;;;;;;;;;;;;12.39;100.00;101415.78;10354161;28;20544;-63
2022/06/21 01:25:22;;;;;;;22.70;5.03;;;;;;;12.39;100.00;101424.84;10364215;28;19954;-63
2022/06/21 01:30:18;;;;;;;21.05;5.03;;;;;;;12.40;100.00;101423.72;10359428;28;20135;-63
2022/06/21 01:35:28;;;;;;;17.45;4.72;;;;;;;12.36;100.00;101428.19;10364322;28;22011;-63
2022/06/21 01:40:29;;;;;;;15.27;4.35;;;;;;;12.33;100.00;101431.56;10356403;28;20072;-63
2022/06/21 01:45:31;;;;;;;23.83;5.55;;;;;;;12.33;100.00;101428.84;10355503;28;20543;-62
2022/06/21 01:50:29;;;;;;;16.15;4.75;;;;;;;12.27;100.00;101430.06;10358521;28;20453;-63
2022/06/21 01:55:34;;;;;;;18.60;4.20;;;;;;;12.27;100.00;101424.59;10354244;28;20492;-63
2022/06/21 02:00:35;;;;;;;18.90;4.00;;;;;;;12.36;100.00;101430.13;10353824;28;20131;-63
2022/06/21 02:05:37;;;;;;;20.50;4.63;;;;;;;12.41;100.00;101411.63;10348077;28;20048;-63
2022/06/21 02:10:54;;;;;;;19.13;4.93;;;;;;;12.36;100.00;101411.75;10357961;28;20131;-63
2022/06/21 02:15:56;;;;;;;16.77;4.95;;;;;;;12.31;100.00;101409.13;10360149;28;20052;-62
2022/06/21 02:20:57;;;;;;;;;;;;;;;12.26;100.00;101406.53;10355915;28;20047;-63
2022/06/21 02:25:56;;;;;;;11.95;3.55;;;;;;;12.24;100.00;101408.78;10365724;28;20439;-62
2022/06/21 02:30:54;;;;;;;18.77;4.25;;;;;;;12.24;100.00;101410.72;10360415;28;20122;-62
2022/06/21 02:36:20;;;;;;;20.58;4.30;;;;;;;12.23;100.00;101401.69;10357558;28;20123;-62
2022/06/21 02:41:19;;;;;;;17.83;4.50;;;;;;;12.18;100.00;101407.25;10347119;28;20036;-63
2022/06/21 02:46:23;;;;;;;20.35;5.28;;;;;;;12.11;100.00;101404.16;10351096;28;20067;-62
2022/06/21 02:51:30;;;;;;;19.20;4.43;;;;;;;12.15;100.00;101405.97;10353243;27;20056;-62
2022/06/21 02:56:35;;;;;;;15.85;3.75;;;;;;;12.10;100.00;101408.03;10349946;28;20703;-62
2022/06/21 03:01:38;;;;;;;29.38;4.30;;;;;;;12.00;100.00;101406.34;10343921;28;20101;-62
2022/06/21 03:06:34;;;;;;;;;;;;;;;11.95;100.00;101423.72;10349095;28;20082;-63
2022/06/21 03:11:36;;;;;;;21.15;4.10;;;;;;;12.05;100.00;101411.69;10350962;28;19935;-63
2022/06/21 03:16:33;;;;;;;24.65;4.45;;;;;;;12.05;100.00;101419.13;10332977;28;20082;-62
2022/06/21 03:21:32;;;;;;;20.17;4.15;;;;;;;12.07;100.00;101414.09;10338999;28;20373;-62
2022/06/21 03:26:30;;;;;;;16.80;3.40;;;;;;;12.03;100.00;101413.13;10332420;28;20093;-61
2022/06/21 03:31:34;;;;;;;14.30;3.35;;;;;;;12.07;100.00;101411.38;10337029;28;20040;-62
2022/06/21 03:36:32;;;;;;;12.15;2.83;;;;;;;12.14;100.00;101415.31;10332963;28;20044;-64
2022/06/21 03:41:44;;;;;;;14.18;2.95;;;;;;;12.08;100.00;101422.03;10346295;28;20729;-66
2022/06/21 03:47:04;;;;;;;20.17;4.50;;;;;;;12.06;100.00;101434.44;10339536;28;20393;-67
2022/06/21 03:52:06;;;;;;;16.40;3.53;;;;;;;12.10;100.00;101435.44;10341880;28;20046;-67
2022/06/21 03:57:18;;;;;;;15.27;3.17;;;;;;;12.10;100.00;101429.97;10333695;27;20039;-64
2022/06/21 04:02:23;;;;;;;18.38;2.78;;;;;;;12.17;100.00;101435.81;10326322;28;20457;-64
2022/06/21 04:07:49;;;;;;;21.17;3.53;;;;;;;12.16;100.00;101450.63;10331361;28;20071;-64
2022/06/21 04:12:58;;;;;;;17.13;3.90;;;;;;;12.20;100.00;101457.13;10334803;28;20037;-64
2022/06/21 04:18:07;;;;;;;17.73;3.40;;;;;;;12.17;100.00;101463.22;10328902;28;20134;-64
2022/06/21 04:23:33;;;;;;;22.38;2.95;;;;;;;12.19;100.00;101439.88;10332361;28;20238;-64
2022/06/21 04:28:38;;;;;;;13.52;3.58;;;;;;;12.21;100.00;101442.31;10334574;28;20052;-64
2022/06/21 04:33:43;;;;;;;15.45;3.22;;;;;;;12.21;100.00;101461.50;10336438;28;20041;-64
2022/06/21 04:39:02;;;;;;;14.73;3.00;;;;;;;12.25;100.00;101459.72;10334862;28;20123;-64
2022/06/21 04:44:05;;;;;;;23.88;3.20;;;;;;;12.32;100.00;101460.13;10333054;28;20570;-64
2022/06/21 04:49:20;;;;;;;13.15;2.85;;;;;;;12.36;100.00;101452.88;10338956;28;20036;-65
2022/06/21 04:54:19;;;;;;;17.88;2.95;;;;;;;12.36;100.00;101466.59;10332461;28;20052;-66
2022/06/21 04:59:27;;;;;;;14.68;2.47;;;;;;;12.38;100.00;101469.84;10338354;28;20457;-65
2022/06/21 05:04:31;;;;;;;14.30;2.75;;;;;;;12.46;100.00;101470.22;10346824;28;20074;-66
2022/06/21 05:09:31;;;;;;;11.30;2.38;;;;;;;12.54;100.00;101466.72;10353133;28;20056;-66
2022/06/21 05:14:33;;;;;;;14.57;3.70;;;;;;;12.61;100.00;101478.06;10351401;28;20044;-66
2022/06/21 05:19:36;;;;;;;14.87;2.77;;;;;;;12.68;100.00;101472.94;10354325;28;20036;-67
2022/06/21 05:24:33;;;;;;;19.35;2.47;;;;;;;12.72;100.00;101460.22;10333873;28;20489;-66
2022/06/21 05:29:50;;;;;;;10.82;2.17;;;;;;;12.85;100.00;101461.25;10347554;28;20044;-66
2022/06/21 05:34:58;;;;;;;18.90;2.83;;;;;;;12.92;100.00;101471.78;10347935;28;20044;-67
2022/06/21 05:39:56;;;;;;;10.68;2.00;;;;;;;12.96;100.00;101468.09;10340499;28;20139;-66
2022/06/21 05:45:11;;;;;;;16.95;3.03;;;;;;;13.01;100.00;101465.19;10348655;28;20574;-66
2022/06/21 05:50:15;;;;;;;8.90;2.00;;;;;;;13.13;100.00;101472.84;10348522;28;20044;-67
2022/06/21 05:55:34;;;;;;;11.65;2.20;;;;;;;13.21;100.00;101480.31;10345969;28;20125;-66
2022/06/21 06:00:36;;;;;;;16.98;3.85;;;;;;;13.24;100.00;101474.19;10370228;28;20389;-66
2022/06/21 06:05:35;;;;;;;8.77;2.90;;;;;;;13.32;100.00;101469.06;10341347;28;20060;-66
2022/06/21 06:10:32;;;;;;;8.45;2.53;;;;;;;13.39;100.00;101480.41;10350138;28;20062;-66
2022/06/21 06:15:35;;;;;;;10.18;2.03;;;;;;;13.45;100.00;101485.44;10362206;28;20506;-66
2022/06/21 06:20:36;;;;;;;13.43;2.05;;;;;;;13.53;100.00;101481.09;10359764;28;20048;-66
2022/06/21 06:25:40;;;;;;;15.32;2.10;;;;;;;13.67;100.00;101487.28;10354133;28;20079;-66
2022/06/21 06:30:45;;;;;;;13.63;2.53;;;;;;;13.76;100.00;101475.47;10350464;28;20101;-66
2022/06/21 06:35:43;;;;;;;12.35;2.30;;;;;;;13.86;100.00;101464.19;10365131;28;20271;-66
2022/06/21 06:40:45;;;;;;;11.73;2.10;;;;;;;13.98;100.00;101461.59;10345336;28;20571;-66
2022/06/21 06:45:48;;;;;;;11.00;2.20;;;;;;;13.99;100.00;101471.47;10338824;28;20071;-67
2022/06/21 06:51:14;;;;;;;13.10;2.03;;;;;;;14.09;100.00;101475.84;10349031;28;20044;-66
2022/06/21 06:56:29;;;;;;;9.57;1.90;;;;;;;14.17;100.00;101471.47;10342025;28;20457;-66
2022/06/21 07:01:43;;;;;;;9.55;1.85;;;;;;;14.24;100.00;101477.31;10348183;28;20462;-67
2022/06/21 07:06:44;;;;;;;10.02;1.98;;;;;;;14.34;100.00;101476.97;10356476;28;20100;-66
2022/06/21 07:11:41;;;;;;;7.57;2.05;;;;;;;14.44;100.00;101482.16;10339975;28;20052;-66
2022/06/21 07:16:40;;;;;;;8.95;2.15;;;;;;;14.57;100.00;101485.88;10353467;28;20043;-67
2022/06/21 07:21:38;;;;;;;16.00;2.53;;;;;;;14.84;100.00;101479.19;10351374;28;20044;-67
2022/06/21 07:26:42;;;;;;;7.97;1.60;;;;;;;14.94;100.00;101469.75;10356144;28;20040;-66
2022/06/21 07:31:53;;;;;;;14.93;2.05;;;;;;;14.83;100.00;101466.56;10347387;28;20507;-66
2022/06/21 07:37:03;;;;;;;10.70;2.13;;;;;;;14.88;100.00;101458.13;10348668;28;20583;-66
2022/06/21 07:42:18;;;;;;;12.23;2.03;;;;;;;15.05;100.00;101462.75;10361136;28;20481;-66
2022/06/21 07:47:37;;;;;;;12.02;1.58;;;;;;;15.17;100.00;101459.28;10364865;28;20079;-66
2022/06/21 07:52:39;;;;;;;9.60;1.92;;;;;;;15.31;100.00;101472.84;10354179;27;20101;-66
2022/06/21 07:57:43;;;;;;;10.23;1.80;;;;;;;15.42;100.00;101459.50;10353957;28;20056;-66
2022/06/21 08:08:06;;;;;;;11.52;1.92;;;;;;;15.76;100.00;101467.59;10348815;27;20088;-66
2022/06/21 08:13:03;;;;;;;9.52;2.55;;;;;;;15.86;100.00;101462.84;10341999;28;20078;-66
2022/06/21 08:18:30;;;;;;;13.40;2.97;;;;;;;15.93;100.00;101463.91;10359668;28;20677;-66
2022/06/21 08:23:37;;;;;;;8.57;1.60;;;;;;;16.05;100.00;101459.59;10347018;28;20041;-66
2022/06/21 08:28:51;;;;;;;8.35;1.73;;;;;;;16.08;100.00;101468.03;10352398;28;20070;-66
2022/06/21 08:34:05;;;;;;;11.38;2.25;;;;;;;16.14;100.00;101461.13;10349423;28;20553;-66
2022/06/21 08:39:10;;;;;;;5.32;1.25;;;;;;;16.29;100.00;101458.91;10341916;28;20424;-66
2022/06/21 08:44:37;;;;;;;10.57;1.90;;;;;;;16.48;100.00;101461.97;10336295;28;20059;-66
2022/06/21 08:49:42;;;;;;;7.75;1.23;;;;;;;16.60;100.00;101470.28;10358200;28;20435;-66
2022/06/21 08:55:02;;;;;;;8.98;1.65;;;;;;;16.70;100.00;101460.75;10345596;28;20074;-66
2022/06/21 09:00:01;;;;;;;11.82;1.77;;;;;;;16.92;100.00;101467.88;10353134;28;20106;-66
2022/06/21 09:05:22;;;;;;;7.63;1.40;;;;;;;16.99;100.00;101476.41;10358621;28;20135;-66
2022/06/21 09:11:08;;;;;;;14.70;2.17;;;;;;;17.11;100.00;101472.03;10337917;28;20213;-66
2022/06/21 09:16:29;;;;;;;7.47;1.52;;;;;;;17.31;100.00;101476.63;10350990;28;20092;-66
2022/06/21 09:21:51;;;;;;;7.30;1.73;;;;;;;17.51;100.00;101479.66;10342165;28;20082;-66
2022/06/21 09:27:06;;;;;;;13.70;2.25;;;;;;;17.51;100.00;101474.91;10357057;28;20089;-66
2022/06/21 09:32:09;;;;;;;6.68;1.38;;;;;;;17.79;100.00;101479.72;10355324;28;20078;-66
2022/06/21 09:37:08;;;;;;;;;;;;;;;17.85;100.00;101478.38;10365904;28;20136;-66
2022/06/21 09:42:32;;;;;;;8.80;1.75;;;;;;;17.92;100.00;101473.03;10359958;28;19986;-66
2022/06/21 09:47:54;;;;;;;7.18;1.40;;;;;;;18.21;100.00;101474.66;10363475;28;20552;-66
2022/06/21 09:53:13;;;;;;;5.57;1.65;;;;;;;18.36;100.00;101480.63;10346700;28;20079;-66
2022/06/21 09:58:24;;;;;;;7.95;1.30;;;;;;;18.69;100.00;101477.59;10358809;28;20044;-66
2022/06/21 10:03:33;;;;;;;8.30;1.50;;;;;;;18.70;100.00;101474.47;10360316;28;20051;-66
2022/06/21 10:09:04;;;;;;;5.43;1.17;;;;;;;19.09;100.00;101484.97;10357687;28;20552;-68
2022/06/21 10:14:38;;;;;;;7.63;1.40;;;;;;;19.68;98.22;101474.88;10346242;28;20091;-66
2022/06/21 10:19:59;;;;;;;6.03;1.02;;;;;;;19.97;93.42;101468.03;10353101;28;20044;-66
2022/06/21 10:25:21;;;;;;;9.35;1.95;;;;;;;20.69;90.79;101475.84;10351874;28;20105;-66
2022/06/21 10:30:25;;;;;;;5.78;1.23;;;;;;;22.00;79.57;101475.56;10348906;28;20130;-66
2022/06/21 10:36:03;;;;;;;5.82;1.20;;;;;;;23.04;70.37;101468.34;10370852;28;20059;-67
2022/06/21 10:41:39;;;;;;;6.07;1.75;;;;;;;24.09;63.93;101467.88;10299810;28;20040;-67
2022/06/21 10:46:44;;;;;;;6.07;1.27;;;;;;;23.22;64.61;101468.50;10329066;28;20092;-66
2022/06/21 10:52:12;;;;;;;5.57;1.27;;;;;;;22.32;65.11;101464.00;10353101;28;20543;-67
2022/06/21 10:57:21;;;;;;;6.05;1.23;;;;;;;21.93;73.54;101453.19;10338825;28;20036;-67
2022/06/21 11:02:55;;;;;;;5.65;1.20;;;;;;;22.65;66.09;101449.25;10354326;28;20083;-67
2022/06/21 11:08:17;;;;;;;4.68;1.30;;;;;;;23.83;59.16;101432.63;10347388;28;20106;-67
2022/06/21 11:13:18;;;;;;;5.40;1.40;;;;;;;23.90;58.03;101437.44;10351558;28;20040;-67
2022/06/21 11:18:35;;;;;;;5.93;1.27;;;;;;;23.73;57.77;101434.13;10358982;28;20582;-67
2022/06/21 11:24:02;;;;;;;6.43;1.70;;;;;;;24.64;56.76;101419.31;10348919;28;20697;-67
2022/06/21 11:29:12;;;;;;;4.68;1.20;;;;;;;24.93;50.92;101417.34;10343348;27;20040;-67
2022/06/21 11:34:31;;;;;;;4.35;1.20;;;;;;;25.77;48.97;101411.19;10349337;28;20496;-68
2022/06/21 11:39:46;;;;;;;6.22;1.55;;;;;;;25.70;50.78;101422.44;10350008;28;20564;-67
2022/06/21 11:45:03;;;;;;;4.38;1.13;;;;;;;24.50;53.14;101428.47;10352090;28;20710;-67
2022/06/21 11:49:59;;;;;;;4.75;1.48;;;;;;;25.19;56.85;101421.72;10353034;28;20093;-68
2022/06/21 11:55:19;;;;;;;7.50;1.85;;;;;;;26.41;59.30;101426.09;10361272;28;20068;-67
2022/06/21 12:00:25;;;;;;;7.30;1.60;;;;;;;25.58;48.83;101425.66;10349944;28;20075;-68
2022/06/21 12:05:53;;;;;;;6.60;1.48;;;;;;;25.15;52.09;101417.31;10348097;28;20048;-67
2022/06/21 12:11:14;;;;;;;5.72;1.25;;;;;;;25.33;50.01;101409.72;10349205;28;20040;-67
2022/06/21 12:16:19;;;;;;;4.80;1.20;;;;;;;25.34;49.08;101402.94;10343775;28;20327;-66
2022/06/21 12:21:21;;;;;;;6.38;1.38;;;;;;;25.47;50.92;101402.50;10360637;28;21761;-66
2022/06/21 12:26:22;;;;;;;7.07;1.33;;;;;;;25.76;46.60;101406.81;10359595;28;20048;-66
2022/06/21 12:31:39;;;;;;;4.20;1.25;;;;;;;25.38;45.82;101395.31;10342147;28;20075;-66
2022/06/21 12:36:49;;;;;;;3.72;1.10;;;;;;;25.63;51.46;101393.66;10360339;28;20035;-65
2022/06/21 12:41:55;;;;;;;3.65;1.30;;;;;;;25.11;47.98;101396.94;10357861;28;20070;-66
2022/06/21 12:47:11;;;;;;;6.22;1.25;;;;;;;24.82;49.48;101385.78;10351449;28;20072;-67
2022/06/21 12:52:19;;;;;;;5.72;1.63;;;;;;;24.28;49.71;101374.53;10358971;28;20071;-66
2022/06/21 12:57:32;;;;;;;4.78;1.20;;;;;;;23.98;49.88;101377.63;10358348;28;20097;-66
2022/06/21 13:02:52;;;;;;;5.35;1.20;;;;;;;23.70;53.13;101376.31;10352322;28;20050;-66
2022/06/21 13:08:27;;;;;;;10.07;1.73;;;;;;;23.99;56.89;101370.06;10356265;28;20051;-66
2022/06/21 13:13:39;;;;;;;7.38;1.40;;;;;;;24.77;52.71;101361.81;10349661;28;20135;-66
2022/06/21 13:18:59;;;;;;;5.40;1.00;;;;;;;24.08;51.65;101360.09;10358067;27;20070;-67
2022/06/21 13:24:12;;;;;;;8.20;1.48;;;;;;;23.60;51.91;101346.38;10351659;28;20040;-66
2022/06/21 13:29:31;;;;;;;2.75;0.93;;;;;;;23.66;58.10;101344.78;10349791;28;20436;-66
2022/06/21 13:34:43;;;;;;;6.28;1.40;;;;;;;23.57;58.77;101335.97;10361978;28;20116;-67
2022/06/21 13:39:39;;;;;;;;;;;;;;;23.36;56.32;101341.44;10358067;28;20044;-66
2022/06/21 13:45:03;;;;;;;7.68;1.10;;;;;;;22.66;56.96;101338.56;10352586;28;19959;-67
2022/06/21 13:50:15;;;;;;;5.70;1.40;;;;;;;22.51;56.67;101325.69;10359873;28;20127;-66
2022/06/21 13:55:16;;;;;;;6.60;1.30;;;;;;;22.72;62.61;101314.75;10345235;28;20692;-66
2022/06/21 14:00:15;;;;;;;3.95;1.00;;;;;;;22.89;58.84;101319.63;10361715;28;20440;-66
2022/06/21 14:05:41;;;;;;;6.43;1.02;;;;;;;22.73;55.84;101316.31;10347905;27;20075;-66
2022/06/21 14:10:47;;;;;;;5.85;1.30;;;;;;;22.55;56.45;101320.97;10369773;28;20055;-66
2022/06/21 14:15:56;;;;;;;6.80;1.75;;;;;;;22.48;58.22;101311.34;10348852;28;20040;-66
2022/06/21 14:21:05;;;;;;;6.68;1.10;;;;;;;22.72;58.51;101302.75;10350915;28;20056;-66
2022/06/21 14:26:17;;;;;;;5.68;1.27;;;;;;;23.22;60.92;101309.50;10337051;28;20055;-66
2022/06/21 14:31:25;;;;;;;;;;;;;;;23.93;57.58;101303.41;10347671;28;20044;-67
2022/06/21 14:36:49;;;;;;;3.10;0.65;;;;;;;23.94;54.11;101288.25;10332237;28;20011;-67
2022/06/21 14:41:58;;;;;;;6.90;1.30;;;;;;;23.60;53.81;101278.56;10342378;28;20078;-67
2022/06/21 14:47:02;;;;;;;7.97;1.80;;;;;;;23.70;56.49;101281.38;10339343;28;20060;-67
2022/06/21 14:52:26;;;;;;;7.45;1.48;;;;;;;23.68;48.24;101275.41;10333545;28;20044;-67
2022/06/21 14:57:59;;;;;;;5.57;1.10;;;;;;;24.20;51.48;101288.28;10325519;27;20082;-67
2022/06/21 15:03:08;;;;;;;5.28;1.33;;;;;;;23.69;48.72;101271.41;10341943;28;20044;-67
2022/06/21 15:08:20;;;;;;;5.82;1.23;;;;;;;23.41;57.70;101265.72;10350653;28;20150;-67
2022/06/21 15:13:26;;;;;;;5.15;1.30;;;;;;;23.65;58.46;101270.59;10353047;28;20040;-67
2022/06/21 15:18:32;;;;;;;5.72;1.30;;;;;;;23.99;59.90;101275.09;10352174;28;20067;-67
2022/06/21 15:23:35;;;;;;;5.63;1.30;;;;;;;23.80;57.94;101270.69;10344589;28;20500;-67
2022/06/21 15:28:31;;;;;;;6.40;1.48;;;;;;;23.87;59.76;101260.31;10347157;28;20041;-67
2022/06/21 15:33:35;;;;;;;4.45;1.40;;;;;;;23.82;61.33;101257.13;10353479;28;20549;-67
2022/06/21 15:38:47;;;;;;;8.65;3.80;;;;;;;23.87;58.91;101256.72;10358956;28;20059;-66
2022/06/21 15:43:44;;;;;;;;;;;;;;;23.86;60.26;101252.34;10356257;28;20482;-67
2022/06/21 15:54:19;;;;;;;6.63;1.52;;;;;;;23.94;60.38;101259.53;10349660;28;20635;-66
2022/06/21 15:59:34;;;;;;;4.63;1.63;;;;;;;24.60;56.19;101252.75;10340609;28;20048;-66
2022/06/21 16:04:33;;;;;;;9.32;1.60;;;;;;;24.23;54.89;101253.94;10342116;28;20043;-66
2022/06/21 16:09:36;;;;;;;6.95;1.65;;;;;;;24.57;58.99;101263.53;10338198;28;20063;-67
2022/06/21 16:14:36;;;;;;;7.20;1.90;;;;;;;25.37;54.91;101262.16;10366696;28;20494;-66
2022/06/21 16:19:44;;;;;;;6.18;1.58;;;;;;;25.59;53.42;101259.25;10342317;28;20242;-66
2022/06/21 16:25:00;;;;;;;5.18;1.65;;;;;;;26.05;51.59;101244.19;10368295;28;20303;-66
2022/06/21 16:30:12;;;;;;;8.73;1.90;;;;;;;25.92;51.06;101259.88;10353992;28;20097;-67
2022/06/21 16:35:28;;;;;;;7.03;1.73;;;;;;;25.78;51.16;101250.38;10352477;28;20114;-67
2022/06/21 16:45:56;;;;;;;5.78;2.05;;;;;;;24.64;56.63;101239.59;10357480;28;20044;-66
2022/06/21 16:51:15;;;;;;;6.35;1.40;;;;;;;24.71;63.52;101242.38;10337041;28;20507;-67
2022/06/21 16:56:16;;;;;;;7.50;1.70;;;;;;;25.33;55.35;101247.38;10368084;28;20048;-67
2022/06/21 17:01:15;;;;;;;6.77;1.73;;;;;;;25.90;54.08;101239.88;10311922;28;20505;-67
2022/06/21 17:06:40;;;;;;;4.50;1.40;;;;;;;25.97;52.83;101231.44;10333133;28;20796;-67
2022/06/21 17:12:08;;;;;;;6.38;1.60;;;;;;;25.26;54.61;101230.63;10325819;28;20082;-67
2022/06/21 17:17:15;;;;;;;5.68;1.60;;;;;;;24.87;56.17;101220.34;10335758;28;20059;-67
2022/06/21 17:22:31;;;;;;;6.82;1.73;;;;;;;24.82;57.41;101234.75;10342899;28;20056;-67
2022/06/21 17:27:45;;;;;;;7.88;2.22;;;;;;;24.29;58.98;101219.63;10339879;28;20079;-66
2022/06/21 17:32:52;;;;;;;7.13;2.20;;;;;;;24.48;59.10;101232.41;10351214;28;20183;-66
2022/06/21 17:38:03;;;;;;;5.93;2.75;;;;;;;25.22;55.42;101229.84;10366008;28;20819;-66
2022/06/21 17:43:12;;;;;;;6.70;2.00;;;;;;;26.12;51.28;101229.34;10369520;28;20554;-66
2022/06/21 17:48:13;;;;;;;6.95;2.40;;;;;;;26.05;49.91;101230.19;10336653;28;20064;-66
2022/06/21 17:53:20;;;;;;;6.45;2.05;;;;;;;26.51;49.90;101223.38;10346920;28;20043;-66
2022/06/21 17:58:25;;;;;;;5.57;2.25;;;;;;;26.52;49.15;101229.75;10349325;28;20070;-67
2022/06/21 18:03:37;;;;;;;5.57;1.83;;;;;;;25.50;53.28;101236.50;10340615;28;20072;-67
2022/06/21 18:08:45;;;;;;;6.15;2.38;;;;;;;24.42;57.75;101234.00;10341336;28;20039;-66
2022/06/21 18:13:57;;;;;;;10.55;2.50;;;;;;;23.54;61.94;101230.69;10335793;28;20106;-66
2022/06/21 18:19:16;;;;;;;7.82;2.05;;;;;;;22.87;66.21;101232.00;10344295;28;20484;-65
2022/06/21 18:24:41;;;;;;;5.60;2.42;;;;;;;22.47;70.48;101231.75;10303524;28;20048;-64
2022/06/21 18:30:02;;;;;;;6.65;2.00;;;;;;;22.07;72.13;101218.66;10354333;28;20071;-64
2022/06/21 18:34:58;;;;;;;5.25;1.67;;;;;;;21.67;77.46;101211.13;10366547;28;20503;-64
2022/06/21 18:40:10;;;;;;;7.15;2.10;;;;;;;21.37;80.02;101220.28;10358763;28;20245;-64
2022/06/21 18:45:22;;;;;;;7.78;1.92;;;;;;;21.10;80.71;101223.16;10330125;28;20709;-64
2022/06/21 18:50:45;;;;;;;;;;;;;;;20.96;81.08;101239.66;10327539;28;20052;-64
2022/06/21 18:55:58;;;;;;;7.60;2.45;;;;;;;20.64;82.69;101240.00;10312707;28;19935;-66
2022/06/21 19:01:04;;;;;;;13.00;2.00;;;;;;;20.39;84.89;101232.03;10321647;28;20131;-64
2022/06/21 19:11:57;;;;;;;6.65;1.80;;;;;;;20.17;88.19;101238.44;10326375;28;20466;-66
2022/06/21 19:17:19;;;;;;;5.15;1.70;;;;;;;20.11;90.45;101239.91;10331391;28;20554;-64
2022/06/21 19:22:27;;;;;;;7.05;2.55;;;;;;;20.05;92.13;101246.91;10350732;28;20064;-64
2022/06/21 19:28:01;;;;;;;6.45;2.40;;;;;;;19.97;93.36;101257.91;10320691;28;20051;-66
2022/06/21 19:32:58;;;;;;;5.93;2.28;;;;;;;19.88;93.81;101249.00;10316126;28;20041;-66
2022/06/21 19:38:25;;;;;;;7.18;2.35;;;;;;;19.66;96.04;101252.53;10304933;28;20673;-66
2022/06/21 19:43:40;;;;;;;6.65;2.20;;;;;;;19.58;97.06;101253.56;10307033;28;20090;-65
2022/06/21 19:49:00;;;;;;;6.90;1.65;;;;;;;19.52;100.00;101264.16;10325201;28;20045;-66
2022/06/21 19:54:03;;;;;;;8.73;2.20;;;;;;;19.44;100.00;101263.19;10333206;28;20095;-65
2022/06/21 19:58:59;;;;;;;7.32;2.13;;;;;;;19.34;100.00;101272.91;10334311;28;20560;-66
2022/06/21 20:04:02;;;;;;;6.28;3.00;;;;;;;19.23;100.00;101282.16;10338799;27;20051;-66
2022/06/21 20:09:29;;;;;;;4.68;1.45;;;;;;;19.09;100.00;101288.19;10330534;28;20825;-66
2022/06/21 20:14:32;;;;;;;8.68;2.15;;;;;;;18.93;100.00;101288.22;10337972;28;20131;-66
2022/06/21 20:19:40;;;;;;;;;;;;;;;18.86;100.00;101293.63;10343192;28;20082;-66
2022/06/21 20:24:56;;;;;;;10.35;2.55;;;;;;;18.72;100.00;101294.84;10357719;28;19967;-65
2022/06/21 20:29:58;;;;;;;4.65;1.80;;;;;;;18.55;100.00;101295.22;10314683;28;20095;-66
2022/06/21 20:35:05;;;;;;;6.90;1.90;;;;;;;18.41;100.00;101303.19;10320043;28;20110;-66
2022/06/21 20:40:08;;;;;;;7.18;3.10;;;;;;;18.36;100.00;101309.00;10330900;28;20135;-67
2022/06/21 20:45:05;;;;;;;6.78;2.70;;;;;;;18.21;100.00;101314.13;10360767;28;20075;-67
2022/06/21 20:50:01;;;;;;;5.05;1.88;;;;;;;18.14;100.00;101319.50;10357207;28;20098;-67
2022/06/21 20:55:12;;;;;;;4.70;1.88;;;;;;;18.05;100.00;101321.63;10361719;28;20113;-66
2022/06/21 21:00:09;;;;;;;7.22;1.67;;;;;;;17.93;100.00;101330.78;10343100;28;20051;-67
2022/06/21 21:05:16;;;;;;;4.72;1.52;;;;;;;17.85;100.00;101332.56;10339110;28;20580;-66
2022/06/21 21:10:20;;;;;;;5.68;2.33;;;;;;;17.71;100.00;101329.38;10352613;27;20075;-62
2022/06/21 21:15:22;;;;;;;6.15;2.22;;;;;;;17.59;100.00;101335.75;10355025;28;20070;-62
2022/06/21 21:20:29;;;;;;;7.37;1.97;;;;;;;17.45;100.00;101333.38;10363978;28;20140;-63
2022/06/21 21:25:50;;;;;;;4.80;1.30;;;;;;;17.42;100.00;101334.03;10365809;28;20051;-62
2022/06/21 21:31:11;;;;;;;4.68;1.58;;;;;;;17.33;100.00;101336.13;10353223;28;20060;-61
2022/06/21 21:36:18;;;;;;;4.88;2.38;;;;;;;17.27;100.00;101326.50;10362848;28;20079;-62
2022/06/21 21:41:39;;;;;;;5.82;2.20;;;;;;;17.16;100.00;101319.84;10344233;28;20043;-63
2022/06/21 21:46:35;;;;;;;3.67;1.35;;;;;;;17.09;100.00;101325.16;10355353;28;20044;-64
2022/06/21 21:51:45;;;;;;;5.60;1.65;;;;;;;17.03;100.00;101333.69;10348825;28;20079;-64
2022/06/21 21:56:45;;;;;;;5.07;1.67;;;;;;;16.94;100.00;101327.47;10347554;28;20075;-63
2022/06/21 22:01:44;;;;;;;6.13;2.25;;;;;;;16.89;100.00;101327.69;10360829;28;20064;-63
2022/06/21 22:06:58;;;;;;;6.07;2.30;;;;;;;16.78;100.00;101327.31;10353442;28;20074;-61
2022/06/21 22:12:18;;;;;;;3.15;1.40;;;;;;;16.67;100.00;101314.31;10353597;28;20487;-61
2022/06/21 22:17:23;;;;;;;5.03;1.48;;;;;;;16.54;100.00;101321.78;10347222;28;20048;-62
2022/06/21 22:22:31;;;;;;;5.32;1.58;;;;;;;16.44;100.00;101323.03;10353060;28;20112;-61
2022/06/21 22:27:35;;;;;;;5.85;1.95;;;;;;;16.40;100.00;101316.59;10358540;28;20051;-61
2022/06/21 22:32:32;;;;;;;3.85;1.50;;;;;;;16.34;100.00;101306.94;10365469;27;20130;-63
2022/06/21 22:37:33;;;;;;;4.22;1.45;;;;;;;16.24;100.00;101319.19;10361977;28;20068;-62
2022/06/21 22:42:32;;;;;;;3.97;1.83;;;;;;;16.10;100.00;101319.50;10351132;28;20161;-62
2022/06/21 22:47:33;;;;;;;4.25;1.73;;;;;;;16.14;100.00;101314.13;10358616;28;20492;-63
2022/06/21 22:52:35;;;;;;;4.35;1.70;;;;;;;16.08;100.00;101301.69;10358364;28;20135;-64
2022/06/21 22:57:38;;;;;;;6.25;2.38;;;;;;;15.97;100.00;101301.31;10354814;28;20051;-63
2022/06/21 23:02:54;;;;;;;4.75;1.52;;;;;;;15.84;100.00;101305.19;10351275;27;20032;-63
2022/06/21 23:08:17;;;;;;;5.78;2.00;;;;;;;15.78;100.00;101291.63;10350877;28;20039;-61
2022/06/21 23:13:17;;;;;;;6.50;2.13;;;;;;;15.70;100.00;101289.72;10337139;28;20066;-61
2022/06/21 23:18:19;;;;;;;5.78;2.17;;;;;;;15.67;100.00;101290.38;10360318;28;20495;-62
2022/06/21 23:23:15;;;;;;;5.20;2.15;;;;;;;15.61;100.00;101297.25;10352028;28;20087;-61
2022/06/21 23:28:14;;;;;;;5.43;2.08;;;;;;;15.44;100.00;101291.91;10359527;28;20083;-63
2022/06/21 23:33:16;;;;;;;7.15;2.47;;;;;;;15.43;100.00;101290.25;10353917;28;20725;-61
2022/06/21 23:38:35;;;;;;;6.47;2.38;;;;;;;15.44;100.00;101289.13;10348057;28;20040;-60
2022/06/21 23:43:42;;;;;;;5.40;2.22;;;;;;;15.39;100.00;101289.31;10355653;28;20068;-61
2022/06/21 23:48:38;;;;;;;7.82;2.75;;;;;;;15.30;100.00;101292.97;10352214;28;20056;-61
2022/06/21 23:53:36;;;;;;;6.13;2.88;;;;;;;15.21;100.00;101294.97;10347053;28;20139;-62